Culebra, PR (00775)

3:57 PM AST on May 22, 2015 (GMT -0400)
Al's Hilltop | | Change Station
CLOSE
Current Station
Personal Weather Station
Location: Culebra, PR
Elevation: 250 ft
Nearby Weather Stations

Elev 250 ft 18.30 °N, 65.29 °W | Updated 37 seconds ago

Partly Cloudy
Partly Cloudy
82.1 °F
Feels Like 89 °F
N
14.0
Wind Variable Wind from ESE
Gusts 15.0 mph

Today
High -- | Low -- °F
--% Chance of Precip.
Yesterday
High -- | Low -- °F
Precip. -- in
5:45 AM 6:50 PM
Waxing Crescent, 23% visible
Pressure 30.07 in
Visibility 10.0 miles
Clouds Few 3000 ft
Heat Index 89 °F
Dew Point 75 °F
Humidity 78%
Rainfall 0.00 in
Snow Depth Not available.
UV 5 out of 12
Pollen Not available.
Air Quality Not available.
Flu Activity Local Activity
METAR TIST 221953Z AUTO 12012KT 10SM FEW030 29/23 A3007 RMK AO2 SLP183 T02940228 TSNO

More Conditions Fewer Conditions

Pressure 30.07 in
Visibility 10.0 miles
Clouds Few 3000 ft
Heat Index 89 °F
Dew Point 75 °F
Humidity 78%
Rainfall 0.00 in
Snow Depth Not available.
UV 5 out of 12
Pollen Not available.
Air Quality Not available.
Flu Activity Local Activity
METAR TIST 221953Z AUTO 12012KT 10SM FEW030 29/23 A3007 RMK AO2 SLP183 T02940228 TSNO

More Conditions Fewer Conditions

10-Day Weather Forecast

Almanac

Astronomy

May. 22, 2015 Rise Set
Actual Time
Civil Twilight
Nautical Twilight
Astronomical Twilight
Moon
Length of Visible Light
Length of Day
Tomorrow will be .
, % of the Moon is Illuminated

Today's Extremes

State Highs State Lows

Community

WunderPhotos

Upload Photos

1,823,279 photos uploaded!

WunderBlogs® & News

Nearby

Air Quality

  Air Quality AQ Index Pollutant
Not available.

Snow Depth

Station Depth Elevation

Earthquake Activity

City Distance Mag. Time & Date
Minimum magnitude displayed is 2.5.

Coastal Water Temperatures

Place Temperature

Stations

Nearby Weather Stations

Station Location Temp. Windchill Dew Point Humidity Wind Precip. Elev Updated Type